Dingod'iles — FAB5665 — position and weather

sailwx.info

Track history (hours):
 
Tides and Currents Weather Stations Pressure Air Temp Water Temp Dewpoint Dewpoint Depression Visibility Wind Speed Wind Dir Waves Ship Positions

Dingod'iles

Last reported at 2018-Jan-26 03:39 UTC. Time now 2018-Feb-18 19:55 UTC.
Position N 14°26' W 060°60'.
Warning: this ship's position is 23 days out of date.

Type: Sailing vessel. MMSI: 227215030.

Date/timePositionNaut miles runAvg speedWind from/ knotsBaromVisibWave heightAir tempDewpointWater temp
2018-Jan-26 03:39N 14°26' W 060°60'1 4.8
2018-Jan-26 03:29N 14°26' W 060°59'7 0.9
2018-Jan-25 20:05N 14°28' W 060°52'0 0.0
2018-Jan-25 19:56N 14°28' W 060°52'0 0.0
2018-Jan-25 19:28N 14°28' W 060°52'0 0.0
2018-Jan-25 19:00N 14°28' W 060°52'1 1.6
2018-Jan-25 18:30N 14°28' W 060°53'4 7.0
2018-Jan-25 18:00N 14°27' W 060°56'  
2018-Jan-18 16:01N 14°26' W 060°53'0 1.5
2018-Jan-18 16:00N 14°26' W 060°53'2 3.4
2018-Jan-18 15:30N 14°27' W 060°55'1 2.2
2018-Jan-18 15:00N 14°26' W 060°54'2 4.2
2018-Jan-18 14:30N 14°28' W 060°53'  
Track history (hours):
 
Tides and Currents Weather Stations Pressure Air Temp Water Temp Dewpoint Dewpoint Depression Visibility Wind Speed Wind Dir Waves Ship Positions

Dingod'iles

Last reported at 2018-Jan-26 03:39 UTC. Time now 2018-Feb-18 19:55 UTC.
Position N 14°26' W 060°60'.
Warning: this ship's position is 23 days out of date.

Type: Sailing vessel. MMSI: 227215030.

Date/timePositionNaut miles runAvg speedWind from/ knotsBaromVisibWave heightAir tempDewpointWater temp
2018-Jan-26 03:39N 14°26' W 060°60'1 4.8
2018-Jan-26 03:29N 14°26' W 060°59'7 0.9
2018-Jan-25 20:05N 14°28' W 060°52'0 0.0
2018-Jan-25 19:56N 14°28' W 060°52'0 0.0
2018-Jan-25 19:28N 14°28' W 060°52'0 0.0
2018-Jan-25 19:00N 14°28' W 060°52'1 1.6
2018-Jan-25 18:30N 14°28' W 060°53'4 7.0
2018-Jan-25 18:00N 14°27' W 060°56'  
2018-Jan-18 16:01N 14°26' W 060°53'0 1.5
2018-Jan-18 16:00N 14°26' W 060°53'2 3.4
2018-Jan-18 15:30N 14°27' W 060°55'1 2.2
2018-Jan-18 15:00N 14°26' W 060°54'2 4.2
2018-Jan-18 14:30N 14°28' W 060°53'  

Dump ship's entire track history